SEY9600 FSIA-FSIA
Flight info
| Callsign | SEY9600 |
|---|---|
| Flight time | 0h 19m |
| Altitude | 11000 |
| Route | TETIX |
| Aircraft | A320/M-SDE3FGHIRWY/LB1 |
Departure
| Time | 2026-05-07 13:09 |
|---|---|
| Airport | Seychelles International Airport (FSIA) |
Arrival
| Time | 2026-05-07 13:28 |
|---|---|
| Airport | Seychelles International Airport (FSIA) |
| Time | Latitude | Longitude | Altitude | Speed | Heading |
|---|---|---|---|---|---|
| 2026-05-07 12:52 | -4.67020 | 55.51136 | 21 ft | 0 kts | 215° |
| 2026-05-07 13:02 | -4.67009 | 55.51144 | 23 ft | 2 kts | 215° |
| 2026-05-07 13:02 | -4.66995 | 55.51153 | 23 ft | 2 kts | 215° |
| 2026-05-07 13:02 | -4.66981 | 55.51163 | 22 ft | 2 kts | 215° |
| 2026-05-07 13:02 | -4.66968 | 55.51173 | 22 ft | 2 kts | 245° |
| 2026-05-07 13:03 | -4.66965 | 55.51186 | 25 ft | 0 kts | 297° |
| 2026-05-07 13:03 | -4.66970 | 55.51195 | 24 ft | 2 kts | 297° |
| 2026-05-07 13:03 | -4.66971 | 55.51199 | 22 ft | 0 kts | 297° |
| 2026-05-07 13:06 | -4.66971 | 55.51198 | 22 ft | 1 kts | 297° |
| 2026-05-07 13:06 | -4.66962 | 55.51194 | 25 ft | 2 kts | 352° |
| 2026-05-07 13:06 | -4.66937 | 55.51203 | 21 ft | 6 kts | 16° |
| 2026-05-07 13:06 | -4.66889 | 55.51201 | 21 ft | 8 kts | 323° |
| 2026-05-07 13:07 | -4.66854 | 55.51138 | 22 ft | 12 kts | 298° |
| 2026-05-07 13:07 | -4.66803 | 55.51058 | 21 ft | 15 kts | 304° |
| 2026-05-07 13:07 | -4.66727 | 55.51037 | 23 ft | 14 kts | 32° |
| 2026-05-07 13:07 | -4.66676 | 55.51070 | 23 ft | 7 kts | 37° |
| 2026-05-07 13:08 | -4.66678 | 55.51082 | 23 ft | 0 kts | 124° |
| 2026-05-07 13:08 | -4.66679 | 55.51085 | 23 ft | 2 kts | 124° |
| 2026-05-07 13:08 | -4.66745 | 55.51181 | 23 ft | 51 kts | 124° |
| 2026-05-07 13:09 | -4.67109 | 55.51688 | 22 ft | 126 kts | 126° |
| 2026-05-07 13:09 | -4.67681 | 55.52520 | 377 ft | 150 kts | 126° |
| 2026-05-07 13:09 | -4.68287 | 55.53391 | 1113 ft | 152 kts | 124° |
| 2026-05-07 13:09 | -4.68897 | 55.54263 | 1899 ft | 155 kts | 124° |
| 2026-05-07 13:10 | -4.69554 | 55.55206 | 2366 ft | 176 kts | 124° |
| 2026-05-07 13:10 | -4.70302 | 55.56280 | 2738 ft | 200 kts | 124° |
| 2026-05-07 13:10 | -4.71141 | 55.57483 | 3228 ft | 225 kts | 124° |
| 2026-05-07 13:10 | -4.72093 | 55.58845 | 3804 ft | 250 kts | 124° |
| 2026-05-07 13:11 | -4.73105 | 55.60337 | 4347 ft | 265 kts | 119° |
| 2026-05-07 13:11 | -4.73610 | 55.62109 | 4477 ft | 266 kts | 91° |
| 2026-05-07 13:11 | -4.73239 | 55.63921 | 4506 ft | 268 kts | 65° |
| 2026-05-07 13:11 | -4.72091 | 55.65389 | 4510 ft | 270 kts | 39° |
| 2026-05-07 13:12 | -4.70428 | 55.66200 | 4502 ft | 273 kts | 16° |
| 2026-05-07 13:12 | -4.68571 | 55.66645 | 4509 ft | 274 kts | 14° |
| 2026-05-07 13:12 | -4.66717 | 55.67084 | 4511 ft | 274 kts | 14° |
| 2026-05-07 13:12 | -4.64856 | 55.67526 | 4509 ft | 274 kts | 15° |
| 2026-05-07 13:13 | -4.62996 | 55.67972 | 4510 ft | 275 kts | 15° |
| 2026-05-07 13:13 | -4.61162 | 55.68414 | 4511 ft | 274 kts | 15° |
| 2026-05-07 13:13 | -4.59303 | 55.68864 | 4513 ft | 274 kts | 15° |
| 2026-05-07 13:13 | -4.57443 | 55.69314 | 4505 ft | 274 kts | 15° |
| 2026-05-07 13:14 | -4.55605 | 55.69758 | 4514 ft | 274 kts | 15° |
| 2026-05-07 13:14 | -4.53743 | 55.70209 | 4515 ft | 274 kts | 15° |
| 2026-05-07 13:14 | -4.51885 | 55.70658 | 4511 ft | 274 kts | 15° |
| 2026-05-07 13:14 | -4.50029 | 55.71105 | 4510 ft | 274 kts | 15° |
| 2026-05-07 13:15 | -4.48168 | 55.71554 | 4517 ft | 275 kts | 15° |
| 2026-05-07 13:15 | -4.46333 | 55.71997 | 4522 ft | 275 kts | 15° |
| 2026-05-07 13:15 | -4.44465 | 55.72450 | 4526 ft | 275 kts | 15° |
| 2026-05-07 13:15 | -4.42601 | 55.72901 | 4524 ft | 275 kts | 15° |
| 2026-05-07 13:16 | -4.40748 | 55.73348 | 4526 ft | 274 kts | 15° |
| 2026-05-07 13:16 | -4.38888 | 55.73797 | 4527 ft | 274 kts | 14° |
| 2026-05-07 13:16 | -4.37054 | 55.74237 | 4524 ft | 274 kts | 14° |
| 2026-05-07 13:16 | -4.35194 | 55.74685 | 4528 ft | 274 kts | 14° |
| 2026-05-07 13:17 | -4.33334 | 55.75115 | 4524 ft | 275 kts | 10° |
| 2026-05-07 13:17 | -4.31435 | 55.75003 | 4526 ft | 276 kts | 343° |
| 2026-05-07 13:17 | -4.29791 | 55.74066 | 4520 ft | 277 kts | 317° |
| 2026-05-07 13:17 | -4.28731 | 55.72472 | 4519 ft | 277 kts | 289° |
| 2026-05-07 13:18 | -4.28501 | 55.70574 | 4519 ft | 276 kts | 262° |
| 2026-05-07 13:18 | -4.29119 | 55.68762 | 4513 ft | 275 kts | 239° |
| 2026-05-07 13:18 | -4.30105 | 55.67118 | 4507 ft | 275 kts | 238° |
| 2026-05-07 13:18 | -4.31094 | 55.65472 | 4507 ft | 276 kts | 238° |
| 2026-05-07 13:19 | -4.32077 | 55.63834 | 4506 ft | 277 kts | 238° |
| 2026-05-07 13:19 | -4.33072 | 55.62167 | 4512 ft | 277 kts | 238° |
| 2026-05-07 13:19 | -4.34061 | 55.60505 | 4510 ft | 278 kts | 238° |
| 2026-05-07 13:19 | -4.35053 | 55.58837 | 4512 ft | 278 kts | 238° |
| 2026-05-07 13:20 | -4.36031 | 55.57193 | 4513 ft | 278 kts | 238° |
| 2026-05-07 13:20 | -4.37026 | 55.55522 | 4518 ft | 278 kts | 238° |
| 2026-05-07 13:20 | -4.38016 | 55.53855 | 4425 ft | 277 kts | 238° |
| 2026-05-07 13:20 | -4.39000 | 55.52196 | 4299 ft | 273 kts | 238° |
| 2026-05-07 13:21 | -4.39940 | 55.50610 | 4171 ft | 263 kts | 238° |
| 2026-05-07 13:21 | -4.40863 | 55.49061 | 4047 ft | 253 kts | 237° |
| 2026-05-07 13:21 | -4.41963 | 55.47740 | 3924 ft | 241 kts | 219° |
| 2026-05-07 13:21 | -4.43332 | 55.46846 | 3800 ft | 229 kts | 202° |
| 2026-05-07 13:22 | -4.44815 | 55.46389 | 3584 ft | 221 kts | 187° |
| 2026-05-07 13:22 | -4.46337 | 55.46320 | 3122 ft | 221 kts | 177° |
| 2026-05-07 13:22 | -4.47813 | 55.46330 | 3027 ft | 202 kts | 178° |
| 2026-05-07 13:22 | -4.49178 | 55.46332 | 2982 ft | 191 kts | 178° |
| 2026-05-07 13:23 | -4.50494 | 55.46335 | 2919 ft | 188 kts | 178° |
| 2026-05-07 13:23 | -4.51761 | 55.46338 | 2867 ft | 175 kts | 177° |
| 2026-05-07 13:23 | -4.52947 | 55.46342 | 2765 ft | 163 kts | 178° |
| 2026-05-07 13:23 | -4.54017 | 55.46344 | 2683 ft | 146 kts | 178° |
| 2026-05-07 13:24 | -4.54995 | 55.46347 | 2637 ft | 137 kts | 177° |
| 2026-05-07 13:24 | -4.55936 | 55.46350 | 2571 ft | 134 kts | 176° |
| 2026-05-07 13:24 | -4.56859 | 55.46354 | 2512 ft | 133 kts | 177° |
| 2026-05-07 13:24 | -4.57783 | 55.46359 | 2442 ft | 133 kts | 176° |
| 2026-05-07 13:25 | -4.58721 | 55.46363 | 2242 ft | 133 kts | 176° |
| 2026-05-07 13:25 | -4.59647 | 55.46365 | 2038 ft | 132 kts | 177° |
| 2026-05-07 13:25 | -4.60555 | 55.46367 | 1845 ft | 132 kts | 177° |
| 2026-05-07 13:25 | -4.61474 | 55.46369 | 1655 ft | 132 kts | 177° |
| 2026-05-07 13:26 | -4.62384 | 55.46416 | 1471 ft | 131 kts | 167° |
| 2026-05-07 13:26 | -4.63232 | 55.46713 | 1282 ft | 129 kts | 150° |
| 2026-05-07 13:26 | -4.63941 | 55.47247 | 1094 ft | 126 kts | 133° |
| 2026-05-07 13:26 | -4.64460 | 55.47936 | 926 ft | 127 kts | 124° |
| 2026-05-07 13:27 | -4.64968 | 55.48668 | 761 ft | 126 kts | 125° |
| 2026-05-07 13:27 | -4.65484 | 55.49400 | 573 ft | 128 kts | 126° |
| 2026-05-07 13:27 | -4.65998 | 55.50111 | 387 ft | 127 kts | 127° |
| 2026-05-07 13:27 | -4.66509 | 55.50838 | 169 ft | 128 kts | 126° |
| 2026-05-07 13:28 | -4.67015 | 55.51573 | 28 ft | 125 kts | 127° |
| 2026-05-07 13:28 | -4.67438 | 55.52174 | 23 ft | 82 kts | 125° |
| 2026-05-07 13:28 | -4.67662 | 55.52506 | 23 ft | 36 kts | 123° |
| 2026-05-07 13:28 | -4.67805 | 55.52713 | 21 ft | 36 kts | 125° |
| 2026-05-07 13:29 | -4.67945 | 55.52914 | 21 ft | 35 kts | 124° |
| 2026-05-07 13:29 | -4.68063 | 55.53091 | 23 ft | 21 kts | 124° |
| 2026-05-07 13:29 | -4.68180 | 55.53162 | 21 ft | 22 kts | 169° |
| 2026-05-07 13:29 | -4.68267 | 55.53200 | 21 ft | 14 kts | 117° |
| 2026-05-07 13:30 | -4.68208 | 55.53272 | 22 ft | 14 kts | 31° |
| 2026-05-07 13:30 | -4.68145 | 55.53210 | 23 ft | 16 kts | 299° |
| 2026-05-07 13:30 | -4.68099 | 55.53143 | 23 ft | 0 kts | 305° |
| 2026-05-07 13:38 | -4.68074 | 55.53107 | 23 ft | 22 kts | 304° |
| 2026-05-07 13:38 | -4.67814 | 55.52712 | 21 ft | 109 kts | 305° |
| 2026-05-07 13:38 | -4.67260 | 55.51906 | 148 ft | 158 kts | 303° |
| 2026-05-07 13:38 | -4.66590 | 55.51014 | 828 ft | 160 kts | 313° |
| 2026-05-07 13:39 | -4.65811 | 55.50205 | 1595 ft | 162 kts | 315° |
| 2026-05-07 13:39 | -4.64983 | 55.49392 | 2175 ft | 176 kts | 319° |
| 2026-05-07 13:39 | -4.63853 | 55.48779 | 2616 ft | 196 kts | 347° |
| 2026-05-07 13:39 | -4.62441 | 55.48551 | 3067 ft | 221 kts | 353° |
| 2026-05-07 13:40 | -4.60827 | 55.48312 | 3621 ft | 246 kts | 353° |
| 2026-05-07 13:40 | -4.59047 | 55.48038 | 4243 ft | 270 kts | 352° |
| 2026-05-07 13:40 | -4.57156 | 55.47740 | 4454 ft | 277 kts | 352° |
| 2026-05-07 13:40 | -4.55247 | 55.47433 | 4501 ft | 277 kts | 352° |
| 2026-05-07 13:41 | -4.53340 | 55.47130 | 4509 ft | 276 kts | 354° |
| 2026-05-07 13:41 | -4.51446 | 55.47047 | 4512 ft | 276 kts | 0° |
| 2026-05-07 13:41 | -4.49526 | 55.47011 | 4513 ft | 275 kts | 0° |
| 2026-05-07 13:41 | -4.47607 | 55.46971 | 4511 ft | 275 kts | 360° |
| 2026-05-07 13:42 | -4.46335 | 55.46943 | 4513 ft | 276 kts | 0° |
| 2026-05-07 13:42 | -4.44411 | 55.46900 | 4508 ft | 276 kts | 0° |
| 2026-05-07 13:42 | -4.42489 | 55.46859 | 4512 ft | 276 kts | 360° |
| 2026-05-07 13:42 | -4.39939 | 55.46805 | 4517 ft | 276 kts | 0° |
| 2026-05-07 13:43 | -4.38641 | 55.46779 | 4525 ft | 275 kts | 360° |
| 2026-05-07 13:43 | -4.36102 | 55.46727 | 4522 ft | 275 kts | 360° |
| 2026-05-07 13:43 | -4.34832 | 55.46701 | 4524 ft | 275 kts | 0° |
| 2026-05-07 13:43 | -4.32911 | 55.46661 | 4529 ft | 276 kts | 0° |
| 2026-05-07 13:44 | -4.30361 | 55.46608 | 4529 ft | 276 kts | 360° |
| 2026-05-07 13:44 | -4.29089 | 55.46580 | 4525 ft | 275 kts | 360° |
| 2026-05-07 13:44 | -4.27166 | 55.46540 | 4521 ft | 275 kts | 0° |
| 2026-05-07 13:44 | -4.25249 | 55.46500 | 4531 ft | 275 kts | 0° |
| 2026-05-07 13:45 | -4.23326 | 55.46463 | 4535 ft | 275 kts | 360° |
| 2026-05-07 13:45 | -4.21424 | 55.46423 | 4536 ft | 276 kts | 358° |
| 2026-05-07 13:45 | -4.19571 | 55.45972 | 4534 ft | 277 kts | 332° |
| 2026-05-07 13:45 | -4.18168 | 55.44674 | 4535 ft | 277 kts | 301° |
| 2026-05-07 13:46 | -4.17592 | 55.42869 | 4533 ft | 277 kts | 271° |
| 2026-05-07 13:46 | -4.17978 | 55.41009 | 4527 ft | 275 kts | 241° |
| 2026-05-07 13:46 | -4.19209 | 55.39586 | 4516 ft | 272 kts | 212° |
| 2026-05-07 13:46 | -4.20960 | 55.38944 | 4513 ft | 269 kts | 183° |
| 2026-05-07 13:47 | -4.22783 | 55.39218 | 4512 ft | 267 kts | 155° |
| 2026-05-07 13:47 | -4.24263 | 55.40315 | 4510 ft | 265 kts | 130° |
| 2026-05-07 13:47 | -4.25460 | 55.41735 | 4510 ft | 266 kts | 129° |
| 2026-05-07 13:47 | -4.26634 | 55.43148 | 4509 ft | 267 kts | 129° |
| 2026-05-07 13:48 | -4.27852 | 55.44570 | 4498 ft | 268 kts | 135° |
| 2026-05-07 13:48 | -4.29358 | 55.45672 | 4501 ft | 269 kts | 152° |
| 2026-05-07 13:48 | -4.31141 | 55.46261 | 4503 ft | 271 kts | 170° |
| 2026-05-07 13:48 | -4.33024 | 55.46341 | 4506 ft | 272 kts | 179° |
| 2026-05-07 13:49 | -4.34897 | 55.46333 | 4517 ft | 261 kts | 179° |
| 2026-05-07 13:49 | -4.36642 | 55.46327 | 4522 ft | 246 kts | 179° |
| 2026-05-07 13:49 | -4.38297 | 55.46324 | 4522 ft | 229 kts | 179° |
| 2026-05-07 13:49 | -4.39844 | 55.46313 | 4512 ft | 214 kts | 181° |
| 2026-05-07 13:50 | -4.41243 | 55.46061 | 4513 ft | 200 kts | 196° |
| 2026-05-07 13:50 | -4.42486 | 55.45505 | 4512 ft | 194 kts | 210° |
| 2026-05-07 13:50 | -4.43552 | 55.44680 | 4510 ft | 194 kts | 224° |
| 2026-05-07 13:50 | -4.44401 | 55.43628 | 4519 ft | 195 kts | 234° |
| 2026-05-07 13:51 | -4.45172 | 55.42527 | 4516 ft | 195 kts | 233° |
| 2026-05-07 13:51 | -4.45956 | 55.41418 | 4519 ft | 195 kts | 233° |
| 2026-05-07 13:51 | -4.46841 | 55.40396 | 4502 ft | 194 kts | 217° |
| 2026-05-07 13:51 | -4.47979 | 55.39758 | 4281 ft | 183 kts | 196° |
| 2026-05-07 13:52 | -4.49186 | 55.39566 | 4057 ft | 169 kts | 176° |
| 2026-05-07 13:52 | -4.50281 | 55.39744 | 3975 ft | 149 kts | 159° |
| 2026-05-07 13:52 | -4.50590 | 55.39857 | 3958 ft | 143 kts | 155° |
| 2026-05-07 13:52 | -4.51156 | 55.40150 | 3927 ft | 137 kts | 145° |
| 2026-05-07 13:53 | -4.51934 | 55.40696 | 3768 ft | 135 kts | 143° |
| 2026-05-07 13:53 | -4.52703 | 55.41235 | 3525 ft | 133 kts | 143° |
| 2026-05-07 13:53 | -4.53447 | 55.41754 | 3245 ft | 131 kts | 143° |
| 2026-05-07 13:53 | -4.54193 | 55.42275 | 2923 ft | 130 kts | 143° |
| 2026-05-07 13:54 | -4.54932 | 55.42791 | 2601 ft | 129 kts | 142° |
| 2026-05-07 13:54 | -4.55667 | 55.43306 | 2363 ft | 128 kts | 143° |
| 2026-05-07 13:54 | -4.56397 | 55.43818 | 2224 ft | 130 kts | 143° |
| 2026-05-07 13:54 | -4.57142 | 55.44340 | 2059 ft | 130 kts | 142° |
| 2026-05-07 13:55 | -4.57882 | 55.44857 | 1913 ft | 128 kts | 142° |
| 2026-05-07 13:55 | -4.58606 | 55.45363 | 1749 ft | 128 kts | 143° |
| 2026-05-07 13:55 | -4.59334 | 55.45871 | 1592 ft | 126 kts | 143° |
| 2026-05-07 13:55 | -4.60056 | 55.46376 | 1434 ft | 126 kts | 143° |
| 2026-05-07 13:56 | -4.60768 | 55.46873 | 1275 ft | 126 kts | 143° |
| 2026-05-07 13:56 | -4.61489 | 55.47378 | 1124 ft | 125 kts | 143° |
| 2026-05-07 13:56 | -4.62201 | 55.47876 | 965 ft | 124 kts | 143° |
| 2026-05-07 13:56 | -4.62926 | 55.48364 | 824 ft | 126 kts | 150° |
| 2026-05-07 13:57 | -4.63763 | 55.48630 | 721 ft | 127 kts | 171° |
| 2026-05-07 13:57 | -4.64640 | 55.48766 | 581 ft | 125 kts | 162° |
| 2026-05-07 13:57 | -4.65345 | 55.49266 | 476 ft | 128 kts | 129° |
| 2026-05-07 13:57 | -4.65876 | 55.49983 | 373 ft | 128 kts | 128° |
| 2026-05-07 13:58 | -4.66410 | 55.50705 | 218 ft | 128 kts | 128° |
| 2026-05-07 13:58 | -4.66916 | 55.51426 | 45 ft | 125 kts | 126° |
| 2026-05-07 13:58 | -4.67354 | 55.52055 | 23 ft | 90 kts | 124° |
| 2026-05-07 13:58 | -4.67612 | 55.52429 | 22 ft | 40 kts | 125° |
| 2026-05-07 13:59 | -4.67765 | 55.52651 | 20 ft | 38 kts | 124° |
| 2026-05-07 13:59 | -4.67908 | 55.52854 | 21 ft | 37 kts | 125° |